12  °C
Temperature
54  °F
Temperature
48  °F
 Dewpoint
9  °C
  Dewpoint
82  %
 Humidity
  Temperature
21  km/h
Wind Speed
11  kts
Wind Speed
13  mph
Wind Speed
5.8  m/s
Wind Speed
260°
Due West

Wind Speed
Partly Cloudy
Conditions
Pressure 1015.92 (hPa) - 30 (inHG)
Visibility 10.0 (km) - 6.2 (mi)

Sky Conditions
LGSA
Location Chania International 80 km (49.72 mi)
Metar :LGSA 280250Z 26011KT 9999 FEW025 12/09 Q1016
Tue 28th January 04:50 am

Nearest Airport
https://www.checkwx.com/weather/LGSA
  Metar Aviation API Data Provided by https://www.checkwx.com/ Original CSS/SVG/PHP scripts by weather34.com © 2015-2020